Webster, Illinois
Current Conditions -  °F | °C
As of 10:15 AM on Monday 22 Dec 2014 (Local Time) from KMQB Reporting Station
Light Rain Light Rain  
Wind Chill: 28°   Ceiling: 400
Heat Index: 37°   Visibility: 2mi
Dew Point: 36°   Wind: 13mph
Humidity: 99%   Direction: 110°ESE
Pressure: 29.73"   Gusts: NA
Location:  40.4155°N, 91.0269°W
Report Text: KMQB 221615Z AUTO 11011KT 2SM -RA OVC004 03/02 A2973 RMK AO2 P0002 T00250024
Loading
Personal Weather Stations






























Interactive Weather Map New forecast layout! Learn more

10-Day Weather Forecast

Advertisements
Track Severe Weather on mobile